sensor_id;sensor_type;location;lat;lon;timestamp;temperature;humidity
28010;DHT22;15334;49.494;8.410;2022-09-09T18:58:34;14.90;99.90
28010;DHT22;15334;49.494;8.410;2022-09-09T19:01:03;14.50;99.90
28010;DHT22;15334;49.494;8.410;2022-09-09T19:03:34;14.50;99.90
28010;DHT22;15334;49.494;8.410;2022-09-09T19:06:04;14.60;99.90
28010;DHT22;15334;49.494;8.410;2022-09-09T19:08:35;14.70;99.90
28010;DHT22;15334;49.494;8.410;2022-09-09T19:11:05;14.90;99.90
28010;DHT22;15334;49.494;8.410;2022-09-09T19:13:35;14.90;99.90
28010;DHT22;15334;49.494;8.410;2022-09-09T19:16:04;15.00;99.90
28010;DHT22;15334;49.494;8.410;2022-09-09T19:18:33;15.10;99.90
28010;DHT22;15334;49.494;8.410;2022-09-09T19:21:13;15.10;99.90
28010;DHT22;15334;49.494;8.410;2022-09-09T19:23:44;15.20;99.90
28010;DHT22;15334;49.494;8.410;2022-09-09T19:26:14;15.20;99.90
28010;DHT22;15334;49.494;8.410;2022-09-09T19:28:44;15.30;99.90
28010;DHT22;15334;49.494;8.410;2022-09-09T19:31:17;15.30;99.90
28010;DHT22;15334;49.494;8.410;2022-09-09T19:33:47;15.40;99.90
28010;DHT22;15334;49.494;8.410;2022-09-09T19:36:17;15.40;99.90
28010;DHT22;15334;49.494;8.410;2022-09-09T19:38:52;15.40;99.90
28010;DHT22;15334;49.494;8.410;2022-09-09T19:41:22;15.40;99.90
28010;DHT22;15334;49.494;8.410;2022-09-09T19:43:55;15.40;99.90
28010;DHT22;15334;49.494;8.410;2022-09-09T19:46:27;15.50;99.90
28010;DHT22;15334;49.494;8.410;2022-09-09T19:48:56;15.50;99.90
28010;DHT22;15334;49.494;8.410;2022-09-09T19:51:27;15.50;99.90
28010;DHT22;15334;49.494;8.410;2022-09-09T19:53:58;15.50;99.90
28010;DHT22;15334;49.494;8.410;2022-09-09T19:56:30;15.60;99.90
28010;DHT22;15334;49.494;8.410;2022-09-09T19:59:01;15.50;99.90
28010;DHT22;15334;49.494;8.410;2022-09-09T20:01:30;15.50;99.90
28010;DHT22;15334;49.494;8.410;2022-09-09T20:04:07;15.40;99.90
28010;DHT22;15334;49.494;8.410;2022-09-09T20:06:38;15.40;99.90
28010;DHT22;15334;49.494;8.410;2022-09-09T20:09:08;15.40;99.90
28010;DHT22;15334;49.494;8.410;2022-09-09T20:11:40;15.40;99.90
28010;DHT22;15334;49.494;8.410;2022-09-09T20:14:10;15.40;99.90
28010;DHT22;15334;49.494;8.410;2022-09-09T20:16:38;15.40;99.90
28010;DHT22;15334;49.494;8.410;2022-09-09T20:19:08;15.40;99.90
28010;DHT22;15334;49.494;8.410;2022-09-09T20:21:38;15.40;99.90
28010;DHT22;15334;49.494;8.410;2022-09-09T20:24:14;15.40;99.90
28010;DHT22;15334;49.494;8.410;2022-09-09T20:26:46;15.40;99.90
28010;DHT22;15334;49.494;8.410;2022-09-09T20:29:17;15.50;99.90
28010;DHT22;15334;49.494;8.410;2022-09-09T20:31:47;15.50;99.90
28010;DHT22;15334;49.494;8.410;2022-09-09T20:34:17;15.50;99.90
28010;DHT22;15334;49.494;8.410;2022-09-09T20:36:47;15.50;99.90
28010;DHT22;15334;49.494;8.410;2022-09-09T20:39:17;15.50;99.90
28010;DHT22;15334;49.494;8.410;2022-09-09T20:41:47;15.50;99.90
28010;DHT22;15334;49.494;8.410;2022-09-09T20:44:19;15.50;99.90
28010;DHT22;15334;49.494;8.410;2022-09-09T20:46:51;15.50;99.90
28010;DHT22;15334;49.494;8.410;2022-09-09T20:49:21;15.50;99.90
28010;DHT22;15334;49.494;8.410;2022-09-09T20:51:53;15.60;99.90
28010;DHT22;15334;49.494;8.410;2022-09-09T20:54:23;15.60;99.90
28010;DHT22;15334;49.494;8.410;2022-09-09T20:56:59;15.50;99.90
28010;DHT22;15334;49.494;8.410;2022-09-09T20:59:29;15.60;99.90
28010;DHT22;15334;49.494;8.410;2022-09-09T21:01:57;15.60;99.90
28010;DHT22;15334;49.494;8.410;2022-09-09T21:04:26;15.70;99.90
28010;DHT22;15334;49.494;8.410;2022-09-09T21:06:58;15.60;99.90
28010;DHT22;15334;49.494;8.410;2022-09-09T21:09:26;15.60;99.90
28010;DHT22;15334;49.494;8.410;2022-09-09T21:11:53;15.60;99.90
28010;DHT22;15334;49.494;8.410;2022-09-09T21:14:21;15.60;99.90
28010;DHT22;15334;49.494;8.410;2022-09-09T21:16:51;15.60;99.90
28010;DHT22;15334;49.494;8.410;2022-09-09T21:19:22;15.60;99.90
28010;DHT22;15334;49.494;8.410;2022-09-09T21:21:52;15.60;99.90
28010;DHT22;15334;49.494;8.410;2022-09-09T21:24:20;15.60;99.90
28010;DHT22;15334;49.494;8.410;2022-09-09T21:26:48;15.60;99.90
28010;DHT22;15334;49.494;8.410;2022-09-09T21:29:18;15.60;99.90
28010;DHT22;15334;49.494;8.410;2022-09-09T21:31:46;15.60;99.90
28010;DHT22;15334;49.494;8.410;2022-09-09T21:34:15;15.60;99.90
28010;DHT22;15334;49.494;8.410;2022-09-09T21:36:44;15.60;99.90
28010;DHT22;15334;49.494;8.410;2022-09-09T21:39:12;15.60;99.90
28010;DHT22;15334;49.494;8.410;2022-09-09T21:41:40;15.60;99.90
28010;DHT22;15334;49.494;8.410;2022-09-09T21:44:08;15.60;99.90
28010;DHT22;15334;49.494;8.410;2022-09-09T21:46:41;15.60;99.90
28010;DHT22;15334;49.494;8.410;2022-09-09T21:49:09;15.70;99.90
28010;DHT22;15334;49.494;8.410;2022-09-09T21:51:38;15.70;99.90
28010;DHT22;15334;49.494;8.410;2022-09-09T21:54:06;15.70;99.90
28010;DHT22;15334;49.494;8.410;2022-09-09T21:56:34;15.70;99.90
28010;DHT22;15334;49.494;8.410;2022-09-09T21:59:02;15.70;99.90
28010;DHT22;15334;49.494;8.410;2022-09-09T22:01:30;15.70;99.90
28010;DHT22;15334;49.494;8.410;2022-09-09T22:04:00;15.70;99.90
28010;DHT22;15334;49.494;8.410;2022-09-09T22:06:28;15.70;99.90
28010;DHT22;15334;49.494;8.410;2022-09-09T22:08:57;15.60;99.90
28010;DHT22;15334;49.494;8.410;2022-09-09T22:11:27;15.60;99.90
28010;DHT22;15334;49.494;8.410;2022-09-09T22:13:56;15.60;99.90
28010;DHT22;15334;49.494;8.410;2022-09-09T22:16:24;15.60;99.90
28010;DHT22;15334;49.494;8.410;2022-09-09T22:18:53;15.60;99.90
28010;DHT22;15334;49.494;8.410;2022-09-09T22:21:24;15.70;99.90
28010;DHT22;15334;49.494;8.410;2022-09-09T22:23:53;15.70;99.90
28010;DHT22;15334;49.494;8.410;2022-09-09T22:26:25;15.70;99.90
28010;DHT22;15334;49.494;8.410;2022-09-09T22:28:53;15.60;99.90
28010;DHT22;15334;49.494;8.410;2022-09-09T22:31:27;15.60;99.90
28010;DHT22;15334;49.494;8.410;2022-09-09T22:33:57;15.50;99.90
28010;DHT22;15334;49.494;8.410;2022-09-09T22:36:26;15.60;99.90
28010;DHT22;15334;49.494;8.410;2022-09-09T22:38:54;15.60;99.90
28010;DHT22;15334;49.494;8.410;2022-09-09T22:41:24;15.50;99.90
28010;DHT22;15334;49.494;8.410;2022-09-09T22:43:52;15.50;99.90
28010;DHT22;15334;49.494;8.410;2022-09-09T22:46:20;15.50;99.90
28010;DHT22;15334;49.494;8.410;2022-09-09T22:48:49;15.50;99.90
28010;DHT22;15334;49.494;8.410;2022-09-09T22:51:17;15.40;99.90
28010;DHT22;15334;49.494;8.410;2022-09-09T22:53:46;15.40;99.90
